Weather at Payuer Airport

Public forecast

Using degrees Celsius for public forecast. Weather courtesy of forecast.io.

Closest aviation weather report (METAR) to Payuer Airport

Report is more than 2 hours old.

Closest report is Addis Ababa Bole International Airport, 391.3 nm (724.6 km) E.

2023/10/01 20:00 (retrieved 5 hours ago)

HAAB 012000Z 36004KT 9999 SCT025 16/09 Q1028 NOSIG

Closest aviation forecast (TAF) to Payuer Airport

Forecast is more than 6 hours old.

Closest forecast is Bahir Dar Airport, 311.0 nm (576.0 km) ENE.

2023/10/01 18:20 (retrieved 7 hours ago)

TAF HAAB 011530Z 0118/0224 VRB03KT 9999 SCT025 SCT090 TAF HABD 011530Z 0118/0224 20005KT 9999 SCT023 SCT080